Time;durP1;ratioP1;P1;durP2;ratioP2;P2;SDS_P1;SDS_P2;PMS_P1;PMS_P2;Temp;Humidity;BMP_temperature;BMP_pressure;BME280_temperature;BME280_humidity;BME280_pressure;Samples;Min_cycle;Max_cycle;Signal;HPM_P1;HPM_P2
2022/03/03 00:01:19;;;;;;;1999.90;999.90;;;;;;;0.62;69.10;162564.63;5052143;28;20083;-68
2022/03/03 00:03:46;;;;;;;1999.90;999.90;;;;;;;0.57;68.76;162550.97;5057469;28;20052;-68
2022/03/03 00:06:12;;;;;;;1999.90;999.90;;;;;;;0.47;68.84;162523.63;5055592;28;20037;-67
2022/03/03 00:08:39;;;;;;;1999.90;999.90;;;;;;;0.44;68.94;162515.41;5060470;28;20076;-67
2022/03/03 00:11:05;;;;;;;1999.90;999.90;;;;;;;0.42;69.13;162509.97;5060891;28;20064;-67
2022/03/03 00:13:32;;;;;;;1999.90;999.90;;;;;;;0.39;69.16;162503.13;5049481;28;20056;-67
2022/03/03 00:15:58;;;;;;;1999.90;999.90;;;;;;;0.38;69.09;162499.03;5058655;28;20071;-67
2022/03/03 00:18:25;;;;;;;1999.90;999.90;;;;;;;0.47;68.92;162523.63;5062941;28;20053;-67
2022/03/03 00:20:51;;;;;;;1999.90;999.90;;;;;;;0.40;69.47;162505.81;5051004;28;20040;-68
2022/03/03 00:23:18;;;;;;;1999.90;999.90;;;;;;;0.44;69.61;162516.78;5050693;28;20053;-67
2022/03/03 00:25:44;;;;;;;1999.90;999.90;;;;;;;0.54;69.11;162542.78;5060873;28;20060;-67
2022/03/03 00:28:11;;;;;;;1999.90;999.90;;;;;;;0.32;69.84;162485.31;5053155;28;20048;-67
2022/03/03 00:30:37;;;;;;;1999.90;999.90;;;;;;;0.25;69.88;162466.16;5052957;28;20041;-67
2022/03/03 00:33:04;;;;;;;1999.90;999.90;;;;;;;0.25;69.99;162466.16;5058451;28;20512;-67
2022/03/03 00:35:30;;;;;;;1999.90;999.90;;;;;;;0.30;70.14;162478.53;5054746;28;20426;-68
2022/03/03 00:37:57;;;;;;;1999.90;999.90;;;;;;;0.31;70.36;162482.63;5057380;28;20052;-68
2022/03/03 00:40:23;;;;;;;1999.90;999.90;;;;;;;0.44;69.92;162516.78;5060215;28;20396;-67
2022/03/03 00:42:50;;;;;;;1999.90;999.90;;;;;;;0.35;70.19;162492.16;5061284;28;20048;-67
2022/03/03 00:45:16;;;;;;;1999.90;999.90;;;;;;;0.21;70.53;162455.25;5057272;28;20057;-67
2022/03/03 00:47:43;;;;;;;1999.90;999.90;;;;;;;0.15;70.56;162440.22;5060079;28;20359;-67
2022/03/03 00:50:09;;;;;;;1999.90;999.90;;;;;;;0.05;70.61;162411.50;5059448;28;20045;-67
2022/03/03 00:52:36;;;;;;;1999.90;999.90;;;;;;;-0.23;71.89;162337.69;5057701;28;20052;-67
2022/03/03 00:55:03;;;;;;;1999.90;999.90;;;;;;;-0.08;72.12;162378.66;5055135;28;20122;-67
2022/03/03 00:57:30;;;;;;;1999.90;999.90;;;;;;;-0.11;72.69;162369.13;5055751;28;20106;-67
2022/03/03 00:59:57;;;;;;;1999.90;999.90;;;;;;;-0.01;71.85;162397.81;5065972;28;20109;-67
2022/03/03 01:02:23;;;;;;;1999.90;999.90;;;;;;;0.08;72.50;162421.06;5062230;28;20055;-67
2022/03/03 01:04:50;;;;;;;1999.90;999.90;;;;;;;-0.10;72.52;162373.22;5060325;28;20041;-67
2022/03/03 01:07:17;;;;;;;1999.90;999.90;;;;;;;-0.17;73.03;162352.72;5050277;28;20452;-67
2022/03/03 01:09:43;;;;;;;1999.90;999.90;;;;;;;-0.04;72.58;162388.28;5063618;28;20056;-67
2022/03/03 01:12:10;;;;;;;1999.90;999.90;;;;;;;0.05;72.82;162411.50;5060021;28;20056;-68
2022/03/03 01:14:37;;;;;;;1999.90;999.90;;;;;;;0.03;73.29;162406.00;5054615;28;20072;-67
2022/03/03 01:17:04;;;;;;;1999.90;999.90;;;;;;;0.03;73.67;162406.00;5064814;28;20063;-68
2022/03/03 01:19:30;;;;;;;1999.90;999.90;;;;;;;-0.04;72.84;162389.63;5059750;28;20052;-68
2022/03/03 01:21:57;;;;;;;1999.90;999.90;;;;;;;-0.01;72.98;162397.81;5056561;28;20059;-68
2022/03/03 01:24:24;;;;;;;1999.90;999.90;;;;;;;0.01;72.45;162400.56;5063682;28;20057;-68
2022/03/03 01:26:50;;;;;;;1999.90;999.90;;;;;;;-0.26;73.70;162329.47;5064928;28;20048;-68
2022/03/03 01:29:17;;;;;;;1999.90;999.90;;;;;;;-0.31;74.09;162315.78;5063221;28;20388;-68
2022/03/03 01:31:44;;;;;;;1999.90;999.90;;;;;;;-0.45;75.05;162280.25;5057870;28;20052;-68
2022/03/03 01:34:11;;;;;;;1999.90;999.90;;;;;;;-0.26;74.74;162329.47;5060145;28;20145;-68
2022/03/03 01:36:37;;;;;;;1999.90;999.90;;;;;;;-0.17;74.90;162352.72;5061259;28;20052;-68
2022/03/03 01:39:05;;;;;;;1999.90;999.90;;;;;;;-0.10;74.76;162373.22;5057488;28;20061;-68
2022/03/03 01:41:33;;;;;;;1999.90;999.90;;;;;;;-0.06;74.49;162384.16;5062976;28;20342;-68
2022/03/03 01:43:59;;;;;;;1999.90;999.90;;;;;;;0.04;74.30;162410.13;5058515;28;20049;-68
2022/03/03 01:46:26;;;;;;;1999.90;999.90;;;;;;;-0.06;74.76;162382.78;5059119;28;20453;-68
2022/03/03 01:48:52;;;;;;;1999.90;999.90;;;;;;;-0.04;74.38;162389.63;5057556;28;20053;-68
2022/03/03 01:51:19;;;;;;;1999.90;999.90;;;;;;;0.03;74.70;162406.00;5058134;28;20060;-68
2022/03/03 01:53:45;;;;;;;1999.90;999.90;;;;;;;0.14;73.83;162437.47;5059176;28;20060;-68
2022/03/03 01:56:12;;;;;;;1999.90;999.90;;;;;;;0.03;74.14;162406.00;5062899;28;20342;-68
2022/03/03 01:58:39;;;;;;;1999.90;999.90;;;;;;;0.01;74.79;162400.56;5066558;28;20048;-68
2022/03/03 02:01:06;;;;;;;1999.90;999.90;;;;;;;0.09;74.76;162423.81;5068109;28;20059;-68
2022/03/03 02:03:33;;;;;;;1999.90;999.90;;;;;;;0.11;74.10;162427.91;5065581;28;20048;-68
2022/03/03 02:06:00;;;;;;;1999.90;999.90;;;;;;;0.17;73.56;162444.31;5058019;28;20044;-68
2022/03/03 02:08:27;;;;;;;1999.90;999.90;;;;;;;0.05;73.88;162412.88;5066530;28;20171;-68
2022/03/03 02:10:55;;;;;;;1999.90;999.90;;;;;;;0.12;74.46;162432.00;5069984;28;20067;-68
2022/03/03 02:13:21;;;;;;;1999.90;999.90;;;;;;;0.01;74.84;162401.91;5064002;28;20067;-68
2022/03/03 02:15:52;;;;;;;1999.90;999.90;;;;;;;0.09;74.52;162423.81;5058506;28;20055;-68
2022/03/03 02:18:19;;;;;;;1999.90;999.90;;;;;;;0.16;74.33;162442.97;5058667;28;20055;-68
2022/03/03 02:20:46;;;;;;;1999.90;999.90;;;;;;;0.02;74.43;162403.31;5056339;28;20179;-68
2022/03/03 02:23:12;;;;;;;1999.90;999.90;;;;;;;0.09;74.34;162422.41;5044783;28;20052;-68
2022/03/03 02:25:39;;;;;;;1999.90;999.90;;;;;;;0.08;73.90;162419.72;5060614;28;20063;-68
2022/03/03 02:28:07;;;;;;;1999.90;999.90;;;;;;;0.01;73.69;162401.91;5059210;28;20049;-68
2022/03/03 02:30:33;;;;;;;1999.90;999.90;;;;;;;-0.07;74.01;162381.41;5057403;28;20052;-68
2022/03/03 02:33:00;;;;;;;1999.90;999.90;;;;;;;-0.34;74.90;162307.59;5060167;28;20044;-68
2022/03/03 02:35:29;;;;;;;1999.90;999.90;;;;;;;-0.37;75.18;162300.78;5060352;28;20053;-68
2022/03/03 02:37:55;;;;;;;1999.90;999.90;;;;;;;-0.17;74.80;162352.72;5066382;28;20428;-68
2022/03/03 02:40:22;;;;;;;1999.90;999.90;;;;;;;-0.11;74.71;162369.13;5057791;28;20053;-68
2022/03/03 02:42:50;;;;;;;1999.90;999.90;;;;;;;-0.09;74.72;162375.97;5058046;28;20334;-68
2022/03/03 02:45:17;;;;;;;1999.90;999.90;;;;;;;-0.31;75.58;162315.78;5057463;28;20095;-67
2022/03/03 02:47:45;;;;;;;1999.90;999.90;;;;;;;-0.41;75.41;162291.19;5057033;28;20192;-67
2022/03/03 02:50:14;;;;;;;1999.90;999.90;;;;;;;-0.39;75.84;162296.69;5059478;28;20442;-67
2022/03/03 02:52:40;;;;;;;1999.90;999.90;;;;;;;-0.20;74.91;162347.22;5063086;28;20052;-67
2022/03/03 02:55:08;;;;;;;1999.90;999.90;;;;;;;-0.25;75.58;162332.22;5063241;28;20049;-68
2022/03/03 02:57:53;;;;;;;1999.90;999.90;;;;;;;-0.32;75.67;162314.44;5056475;28;20473;-68
2022/03/03 03:00:31;;;;;;;1999.90;999.90;;;;;;;-0.27;75.29;162326.72;5063281;28;20131;-67
2022/03/03 03:02:57;;;;;;;1999.90;999.90;;;;;;;-0.14;74.70;162362.28;5057488;28;20443;-68
2022/03/03 03:05:24;;;;;;;1999.90;999.90;;;;;;;-0.09;75.43;162374.56;5066783;28;20494;-68
2022/03/03 03:07:51;;;;;;;1999.90;999.90;;;;;;;-0.08;74.78;162377.31;5059504;28;20468;-68
2022/03/03 03:10:17;;;;;;;1999.90;999.90;;;;;;;-0.12;74.90;162366.38;5080101;28;20074;-68
2022/03/03 03:12:44;;;;;;;1999.90;999.90;;;;;;;-0.19;75.21;162348.63;5055488;28;20052;-68
2022/03/03 03:15:11;;;;;;;1999.90;999.90;;;;;;;-0.16;75.71;162356.81;5068690;28;20060;-68
2022/03/03 03:17:38;;;;;;;1999.90;999.90;;;;;;;-0.18;75.84;162351.31;5065848;28;20052;-68
2022/03/03 03:20:06;;;;;;;1999.90;999.90;;;;;;;-0.05;75.65;162386.88;5065701;28;20380;-68
2022/03/03 03:22:34;;;;;;;1999.90;999.90;;;;;;;-0.06;75.76;162382.78;5054531;28;20073;-68
2022/03/03 03:25:02;;;;;;;1999.90;999.90;;;;;;;-0.09;76.16;162375.97;5062937;28;20047;-68
2022/03/03 03:27:30;;;;;;;1999.90;999.90;;;;;;;-0.09;75.14;162375.97;5063906;28;20044;-68
2022/03/03 03:29:56;;;;;;;1999.90;999.90;;;;;;;-0.31;76.82;162315.78;5064148;28;20071;-68
2022/03/03 03:32:23;;;;;;;1999.90;999.90;;;;;;;-0.14;76.74;162362.28;5063697;28;20368;-68
2022/03/03 03:34:50;;;;;;;1999.90;999.90;;;;;;;-0.20;76.02;162347.22;5060482;28;20049;-68
2022/03/03 03:37:16;;;;;;;1999.90;999.90;;;;;;;-0.16;75.15;162355.44;5062926;28;20067;-68
2022/03/03 03:39:43;;;;;;;1999.90;999.90;;;;;;;-0.20;75.75;162345.88;5064128;28;20056;-68
2022/03/03 03:42:10;;;;;;;1999.90;999.90;;;;;;;-0.09;76.18;162374.56;5055570;28;20044;-68
2022/03/03 03:44:38;;;;;;;1999.90;999.90;;;;;;;0.01;76.12;162400.56;5059402;28;20056;-68
2022/03/03 03:47:06;;;;;;;1999.90;999.90;;;;;;;-0.03;76.70;162392.38;5062388;28;20499;-68
2022/03/03 03:49:33;;;;;;;1999.90;999.90;;;;;;;0.01;76.88;162400.56;5041743;28;20472;-68
2022/03/03 03:52:00;;;;;;;1999.90;999.90;;;;;;;0.04;76.51;162408.78;5058536;28;20045;-68
2022/03/03 03:54:27;;;;;;;1999.90;999.90;;;;;;;0.09;76.47;162423.81;5057854;28;20362;-68
2022/03/03 03:56:53;;;;;;;1999.90;999.90;;;;;;;0.08;75.87;162419.72;5042316;28;20048;-68
2022/03/03 03:59:20;;;;;;;1999.90;999.90;;;;;;;0.05;76.49;162411.50;5059063;28;20338;-68
2022/03/03 04:01:46;;;;;;;1999.90;999.90;;;;;;;0.13;76.39;162434.72;5054951;28;20083;-68
2022/03/03 04:04:13;;;;;;;1999.90;999.90;;;;;;;0.18;75.94;162447.06;5064111;28;20315;-68
2022/03/03 04:06:40;;;;;;;1999.90;999.90;;;;;;;0.19;75.47;162449.75;5060163;28;20044;-68
2022/03/03 04:09:06;;;;;;;1999.90;999.90;;;;;;;0.20;75.27;162452.53;5053805;28;20056;-68
2022/03/03 04:11:33;;;;;;;1999.90;999.90;;;;;;;0.26;74.54;162468.91;5060017;28;20049;-68
2022/03/03 04:14:00;;;;;;;1999.90;999.90;;;;;;;0.06;75.05;162414.22;5059176;28;20326;-68
2022/03/03 04:16:26;;;;;;;1999.90;999.90;;;;;;;-0.02;75.13;162393.72;5063036;28;20058;-68
2022/03/03 04:18:53;;;;;;;1999.90;999.90;;;;;;;-0.02;74.91;162393.72;5063684;28;20046;-68
2022/03/03 04:21:19;;;;;;;1999.90;999.90;;;;;;;-0.06;75.09;162384.16;5062949;28;20389;-68
2022/03/03 04:23:46;;;;;;;1999.90;999.90;;;;;;;-0.01;75.20;162396.47;5057428;28;20079;-68
2022/03/03 04:26:13;;;;;;;1999.90;999.90;;;;;;;0.01;75.17;162401.91;5064567;28;20394;-68
2022/03/03 04:28:39;;;;;;;1999.90;999.90;;;;;;;-0.22;75.82;162341.78;5058291;28;20455;-68
2022/03/03 04:31:06;;;;;;;1999.90;999.90;;;;;;;-0.48;75.79;162270.69;5058230;28;20060;-68
2022/03/03 04:33:33;;;;;;;1999.90;999.90;;;;;;;-0.37;76.15;162302.16;5062778;28;20048;-68
2022/03/03 04:35:59;;;;;;;1999.90;999.90;;;;;;;-0.34;76.09;162307.59;5067047;28;20397;-68
2022/03/03 04:38:26;;;;;;;1999.90;999.90;;;;;;;-0.31;75.81;162317.19;5056215;28;20071;-68
2022/03/03 04:40:52;;;;;;;1999.90;999.90;;;;;;;-0.31;75.29;162317.19;5064074;28;20062;-69
2022/03/03 04:43:19;;;;;;;1999.90;999.90;;;;;;;-0.28;75.85;162324.00;5062696;28;20056;-69
2022/03/03 04:57:06;;;;;;;1999.90;999.90;;;;;;;-0.74;78.30;162203.75;5061237;28;20558;-69
2022/03/03 04:59:33;;;;;;;1999.90;999.90;;;;;;;-0.81;77.91;162183.25;5066407;28;20052;-69
2022/03/03 05:01:59;;;;;;;1999.90;999.90;;;;;;;-0.69;77.51;162214.69;5061405;28;20377;-69
2022/03/03 05:04:26;;;;;;;1999.90;999.90;;;;;;;-0.82;77.70;162180.50;5057027;28;20052;-69
2022/03/03 05:06:53;;;;;;;1999.90;999.90;;;;;;;-0.79;77.25;162190.09;5059781;28;20052;-69
2022/03/03 05:09:19;;;;;;;1999.90;999.90;;;;;;;-0.76;77.44;162198.31;5065562;28;20457;-69
2022/03/03 05:11:46;;;;;;;1999.90;999.90;;;;;;;-0.66;76.63;162222.88;5057183;28;20060;-69
2022/03/03 05:14:12;;;;;;;1999.90;999.90;;;;;;;-0.62;76.93;162233.81;5059722;28;20048;-69
2022/03/03 05:16:39;;;;;;;1999.90;999.90;;;;;;;-0.66;77.63;162224.22;5064465;28;20048;-69
2022/03/03 05:19:06;;;;;;;1999.90;999.90;;;;;;;-0.65;77.44;162225.63;5062893;28;20052;-69
2022/03/03 05:21:33;;;;;;;1999.90;999.90;;;;;;;-0.67;77.18;162221.53;5059770;28;20058;-68
2022/03/03 05:23:59;;;;;;;1999.90;999.90;;;;;;;-0.74;77.00;162203.75;5061898;28;20044;-68
2022/03/03 05:26:26;;;;;;;1999.90;999.90;;;;;;;-0.78;77.47;162192.81;5064046;28;20289;-69
2022/03/03 05:28:53;;;;;;;1999.90;999.90;;;;;;;-0.86;77.41;162170.97;5059693;28;20044;-68
2022/03/03 05:31:19;;;;;;;1999.90;999.90;;;;;;;-1.16;78.34;162090.34;5061274;28;20491;-68
2022/03/03 05:33:46;;;;;;;1999.90;999.90;;;;;;;-0.98;78.46;162139.53;5064619;28;20192;-69
2022/03/03 05:36:13;;;;;;;1999.90;999.90;;;;;;;-0.93;79.14;162151.84;5057711;28;20056;-69
2022/03/03 05:38:40;;;;;;;1999.90;999.90;;;;;;;-0.82;78.84;162181.91;5058692;28;20045;-68
2022/03/03 05:41:07;;;;;;;1999.90;999.90;;;;;;;-0.69;77.94;162216.03;5055100;28;20048;-68
2022/03/03 05:43:35;;;;;;;1999.90;999.90;;;;;;;-0.71;77.91;162211.94;5062592;28;20054;-68
2022/03/03 05:46:03;;;;;;;1999.90;999.90;;;;;;;-0.71;78.55;162211.94;5056991;28;20051;-69
2022/03/03 05:48:30;;;;;;;1999.90;999.90;;;;;;;-0.76;78.65;162198.31;5060755;28;20069;-68
2022/03/03 05:50:57;;;;;;;1999.90;999.90;;;;;;;-0.67;78.78;162220.13;5063541;28;21157;-68
2022/03/03 05:53:24;;;;;;;1999.90;999.90;;;;;;;-0.61;78.52;162237.91;5056194;28;20061;-68
2022/03/03 05:55:56;;;;;;;1999.90;999.90;;;;;;;-0.51;78.36;162263.84;5059932;28;20040;-68
2022/03/03 05:58:28;;;;;;;1999.90;999.90;;;;;;;-0.44;78.28;162281.66;5061671;28;20098;-68
2022/03/03 06:00:58;;;;;;;1999.90;999.90;;;;;;;-0.30;78.21;162318.53;5064441;28;20047;-68
2022/03/03 06:03:29;;;;;;;1999.90;999.90;;;;;;;-0.19;78.28;162348.63;5059950;28;20512;-69
2022/03/03 06:06:02;;;;;;;1999.90;999.90;;;;;;;-0.06;78.01;162382.78;5062843;28;20053;-68
2022/03/03 06:08:38;;;;;;;1999.90;999.90;;;;;;;0.03;78.25;162407.41;5063542;28;20055;-69
2022/03/03 06:11:10;;;;;;;1999.90;999.90;;;;;;;0.05;78.36;162411.50;5062907;28;20064;-69
2022/03/03 06:13:38;;;;;;;;;;;;;;;0.33;78.43;162488.06;5041343;28;20254;-69
2022/03/03 06:16:07;;;;;;;1999.90;999.90;;;;;;;0.53;77.69;162540.03;5060667;28;19927;-69
2022/03/03 06:18:34;;;;;;;1999.90;999.90;;;;;;;0.64;77.66;162570.13;5051506;28;20040;-68
2022/03/03 06:21:00;;;;;;;1999.90;999.90;;;;;;;0.71;77.41;162587.91;5053665;28;20052;-69
2022/03/03 06:23:27;;;;;;;1999.90;999.90;;;;;;;0.79;77.65;162608.41;5065305;28;20055;-69
2022/03/03 06:26:06;;;;;;;1999.90;999.90;;;;;;;0.99;77.27;162663.13;5062476;28;20476;-69
2022/03/03 06:28:34;;;;;;;1999.90;999.90;;;;;;;1.09;76.84;162689.16;5060032;28;20040;-69
2022/03/03 06:31:00;;;;;;;1999.90;999.90;;;;;;;1.11;76.22;162693.25;5051683;28;20458;-69
2022/03/03 06:33:27;;;;;;;1999.90;999.90;;;;;;;0.90;76.43;162638.53;5056140;28;20055;-69
2022/03/03 06:35:55;;;;;;;1999.90;999.90;;;;;;;0.94;76.30;162648.06;5059460;28;20051;-69
2022/03/03 06:38:22;;;;;;;1999.90;999.90;;;;;;;1.05;75.70;162678.19;5067789;28;20339;-69
2022/03/03 06:40:49;;;;;;;1999.90;999.90;;;;;;;0.90;76.12;162637.16;5061614;28;20280;-69
2022/03/03 06:43:16;;;;;;;1999.90;999.90;;;;;;;1.09;75.32;162687.75;5051340;28;20061;-69
2022/03/03 06:45:43;;;;;;;1999.90;999.90;;;;;;;0.94;74.85;162649.47;5052442;28;20052;-69
2022/03/03 06:48:10;;;;;;;1999.90;999.90;;;;;;;0.83;75.53;162620.75;5061274;28;20040;-69
2022/03/03 06:50:39;;;;;;;1999.90;999.90;;;;;;;0.79;75.72;162608.41;5063227;28;20209;-69
2022/03/03 06:53:07;;;;;;;1999.90;999.90;;;;;;;0.68;76.43;162581.03;5051766;28;20314;-69
2022/03/03 06:55:36;;;;;;;1999.90;999.90;;;;;;;0.78;75.58;162605.69;5067312;28;20232;-69
2022/03/03 06:58:03;;;;;;;1999.90;999.90;;;;;;;0.76;75.80;162601.59;5063468;28;20037;-69
2022/03/03 07:00:33;;;;;;;1999.90;999.90;;;;;;;1.10;75.02;162691.84;5050293;28;20053;-69
2022/03/03 07:03:02;;;;;;;1999.90;999.90;;;;;;;0.94;74.41;162648.06;5063787;28;20055;-69
2022/03/03 07:05:29;;;;;;;1999.90;999.90;;;;;;;0.84;74.53;162623.47;5064845;28;20071;-69
2022/03/03 07:07:55;;;;;;;1999.90;999.90;;;;;;;0.77;74.20;162602.94;5067416;28;23446;-70
2022/03/03 07:10:25;;;;;;;1999.90;999.90;;;;;;;0.78;74.59;162605.69;5058370;28;20508;-68
2022/03/03 07:12:54;;;;;;;1999.90;999.90;;;;;;;0.16;76.67;162441.56;5054634;28;20044;-69
2022/03/03 07:15:22;;;;;;;1999.90;999.90;;;;;;;0.30;76.34;162479.88;5063084;28;20055;-69
2022/03/03 07:17:53;;;;;;;1999.90;999.90;;;;;;;0.47;76.12;162524.97;5068103;28;20479;-70
2022/03/03 07:20:23;;;;;;;1999.90;999.90;;;;;;;0.62;75.44;162564.63;5058288;28;20144;-69
2022/03/03 07:22:58;;;;;;;1999.90;999.90;;;;;;;1.02;74.39;162671.34;5060985;28;20048;-69
2022/03/03 07:25:36;;;;;;;1999.90;999.90;;;;;;;0.59;76.17;162556.44;5057161;28;20059;-69
2022/03/03 07:28:07;;;;;;;1999.90;999.90;;;;;;;0.97;74.79;162657.69;5063974;28;20052;-69
2022/03/03 07:30:40;;;;;;;1999.90;999.90;;;;;;;1.13;74.00;162700.13;5060779;28;20041;-69
2022/03/03 07:33:18;;;;;;;1999.90;999.90;;;;;;;1.18;74.08;162713.78;5062399;28;20361;-69
2022/03/03 07:35:49;;;;;;;1999.90;999.90;;;;;;;1.48;72.85;162791.78;5057114;28;20056;-69
2022/03/03 07:38:23;;;;;;;1999.90;999.90;;;;;;;1.78;72.19;162871.19;5061297;28;20052;-69
2022/03/03 07:40:51;;;;;;;1999.90;999.90;;;;;;;1.69;71.84;162847.91;5061184;28;20426;-69
2022/03/03 07:43:19;;;;;;;1999.90;999.90;;;;;;;1.57;71.89;162816.41;5051268;28;20071;-69
2022/03/03 07:45:46;;;;;;;1999.90;999.90;;;;;;;1.79;72.76;162873.88;5062498;28;20445;-69
2022/03/03 07:48:13;;;;;;;1999.90;999.90;;;;;;;2.15;70.19;162969.75;5055155;28;20073;-69
2022/03/03 07:50:41;;;;;;;1999.90;999.90;;;;;;;1.85;72.08;162890.34;5063867;28;20045;-69
2022/03/03 07:53:11;;;;;;;1999.90;999.90;;;;;;;2.10;70.35;162957.44;5060560;28;20231;-69
2022/03/03 07:55:42;;;;;;;1999.90;999.90;;;;;;;2.23;70.64;162993.03;5065684;28;20045;-69
2022/03/03 07:58:30;;;;;;;1999.90;999.90;;;;;;;2.17;71.09;162975.22;5064032;28;20369;-69
2022/03/03 08:00:59;;;;;;;1999.90;999.90;;;;;;;2.69;69.67;163114.91;5058371;28;20052;-69
2022/03/03 08:03:27;;;;;;;1999.90;999.90;;;;;;;2.59;68.81;163087.50;5055057;28;20456;-69
2022/03/03 08:05:56;;;;;;;1999.90;999.90;;;;;;;2.44;70.35;163049.19;5055121;28;20048;-69
2022/03/03 08:08:26;;;;;;;1999.90;999.90;;;;;;;2.87;68.88;163161.47;5058776;28;20041;-69
2022/03/03 08:11:03;;;;;;;1999.90;999.90;;;;;;;2.29;70.55;163008.06;5058070;28;20041;-68
2022/03/03 08:13:30;;;;;;;1999.90;999.90;;;;;;;2.58;69.64;163086.16;5063609;28;20049;-68
2022/03/03 08:15:57;;;;;;;1999.90;999.90;;;;;;;2.99;68.35;163194.34;5063077;28;20442;-68
2022/03/03 08:18:35;;;;;;;1999.90;999.90;;;;;;;3.18;68.25;163246.41;5067030;28;20343;-68
2022/03/03 08:21:04;;;;;;;1999.90;999.90;;;;;;;3.20;66.84;163250.56;5052559;28;20052;-68
2022/03/03 08:23:31;;;;;;;1999.90;999.90;;;;;;;3.38;66.64;163298.53;5054870;28;20354;-68
2022/03/03 08:25:59;;;;;;;1999.90;999.90;;;;;;;3.80;65.72;163409.56;5056785;28;20472;-68
2022/03/03 08:28:26;;;;;;;1999.90;999.90;;;;;;;4.20;63.71;163517.84;5064151;28;20456;-68
2022/03/03 08:31:03;;;;;;;1999.90;999.90;;;;;;;3.90;62.04;163435.56;5067591;28;20091;-68
2022/03/03 08:33:58;;;;;;;1999.90;999.90;;;;;;;3.75;63.48;163397.22;5057974;28;20238;-68
2022/03/03 08:36:33;;;;;;;1999.90;999.90;;;;;;;3.74;64.06;163394.47;5066428;28;20126;-68
2022/03/03 08:39:04;;;;;;;1999.90;999.90;;;;;;;4.13;62.14;163498.66;5064192;28;20400;-67
2022/03/03 08:41:35;;;;;;;1999.90;999.90;;;;;;;4.18;61.96;163511.00;5075544;28;20381;-67
2022/03/03 08:44:05;;;;;;;1999.90;999.90;;;;;;;4.29;59.94;163541.19;5067844;28;20041;-67
2022/03/03 08:46:34;;;;;;;1999.90;999.90;;;;;;;4.38;58.85;163564.50;5058157;28;20044;-68
2022/03/03 08:49:05;;;;;;;1999.90;999.90;;;;;;;4.72;57.92;163655.03;5059703;28;20041;-68
2022/03/03 08:51:32;;;;;;;1999.90;999.90;;;;;;;3.85;60.02;163424.59;5062840;28;20052;-67
2022/03/03 08:53:59;;;;;;;1999.90;999.90;;;;;;;4.57;57.90;163616.59;5049921;28;20060;-68
2022/03/03 08:56:26;;;;;;;1999.90;999.90;;;;;;;3.08;61.61;163219.06;5050914;28;20049;-67
2022/03/03 08:58:53;;;;;;;1999.90;999.90;;;;;;;3.79;61.85;163408.16;5062295;28;20047;-67
2022/03/03 09:01:20;;;;;;;1999.90;999.90;;;;;;;4.26;58.43;163532.94;5060622;28;20052;-68
2022/03/03 09:03:47;;;;;;;1999.90;999.90;;;;;;;4.65;58.51;163635.81;5063950;28;20112;-67
2022/03/03 09:06:16;;;;;;;1999.90;999.90;;;;;;;4.26;59.63;163531.53;5050102;28;20076;-68
2022/03/03 09:08:42;;;;;;;1999.90;999.90;;;;;;;5.05;58.28;163744.19;5055927;28;20422;-68
2022/03/03 09:11:09;;;;;;;1999.90;999.90;;;;;;;4.67;58.46;163641.28;5056312;28;20319;-68
2022/03/03 09:13:36;;;;;;;1999.90;999.90;;;;;;;4.38;56.95;163565.84;5061382;28;20056;-68
2022/03/03 09:16:03;;;;;;;1999.90;999.90;;;;;;;5.19;54.80;163781.22;5063325;28;20048;-68
2022/03/03 09:18:31;;;;;;;1999.90;999.90;;;;;;;4.93;56.74;163712.63;5060481;28;20498;-68
2022/03/03 09:20:58;;;;;;;1999.90;999.90;;;;;;;5.51;54.30;163866.34;5056649;28;20057;-68
2022/03/03 09:23:24;;;;;;;1999.90;999.90;;;;;;;6.08;53.29;164018.75;5066734;28;20079;-68
2022/03/03 09:25:51;;;;;;;1999.90;999.90;;;;;;;5.72;51.22;163922.59;5063640;28;20053;-68
2022/03/03 09:28:17;;;;;;;1999.90;999.90;;;;;;;5.35;51.56;163822.44;5060964;28;20057;-67
2022/03/03 09:30:45;;;;;;;1999.90;999.90;;;;;;;5.87;51.10;163962.41;5060899;28;20083;-68
2022/03/03 09:33:12;;;;;;;1999.90;999.90;;;;;;;6.91;48.16;164239.91;5050011;28;20059;-68
2022/03/03 09:35:39;;;;;;;1999.90;999.90;;;;;;;7.09;48.59;164286.63;5058039;28;20139;-68
2022/03/03 09:38:05;;;;;;;1999.90;999.90;;;;;;;7.38;47.97;164364.91;5060548;28;20075;-68
2022/03/03 09:40:32;;;;;;;1999.90;999.90;;;;;;;5.87;50.54;163962.41;5077202;28;20045;-68
2022/03/03 09:43:07;;;;;;;1999.90;999.90;;;;;;;6.49;49.25;164127.22;5062596;28;20048;-68
2022/03/03 09:45:35;;;;;;;1999.90;999.90;;;;;;;6.63;49.07;164165.72;5052798;28;20049;-68
2022/03/03 09:48:05;;;;;;;1999.90;999.90;;;;;;;6.76;46.37;164198.66;5064390;28;20350;-68
2022/03/03 09:50:35;;;;;;;1999.90;999.90;;;;;;;6.69;47.26;164180.81;5066652;28;20080;-68
2022/03/03 09:53:15;;;;;;;1999.90;999.90;;;;;;;5.91;49.89;163972.00;5055621;28;20051;-68
2022/03/03 09:55:43;;;;;;;1999.90;999.90;;;;;;;5.60;50.54;163891.03;5057445;28;20378;-68
2022/03/03 09:58:10;;;;;;;1999.90;999.90;;;;;;;6.08;49.96;164018.75;5058199;28;20418;-68
2022/03/03 10:00:40;;;;;;;1999.90;999.90;;;;;;;6.01;50.57;163999.53;5054307;28;20049;-68
2022/03/03 10:03:11;;;;;;;1999.90;999.90;;;;;;;5.62;51.51;163896.50;5067794;28;20052;-68
2022/03/03 10:05:42;;;;;;;1999.90;999.90;;;;;;;6.07;51.68;164016.00;5041630;28;20057;-68
2022/03/03 10:08:12;;;;;;;1999.90;999.90;;;;;;;5.85;54.08;163956.94;5056948;28;20052;-67
2022/03/03 10:10:42;;;;;;;1999.90;999.90;;;;;;;6.19;52.35;164047.59;5062195;28;20326;-68
2022/03/03 10:13:10;;;;;;;1999.90;999.90;;;;;;;6.26;51.19;164065.47;5060876;28;20045;-68
2022/03/03 10:15:37;;;;;;;1999.90;999.90;;;;;;;5.67;51.37;163907.50;5061699;28;20049;-68
2022/03/03 10:18:06;;;;;;;1999.90;999.90;;;;;;;6.09;51.37;164021.53;5068547;28;20345;-68
2022/03/03 10:20:46;;;;;;;1999.90;999.90;;;;;;;6.57;50.60;164147.88;5063578;28;20048;-68
2022/03/03 10:23:12;;;;;;;1999.90;999.90;;;;;;;5.49;52.74;163859.47;5061119;28;20053;-68
2022/03/03 10:25:42;;;;;;;1999.90;999.90;;;;;;;5.80;54.16;163944.53;5065984;28;20607;-68
2022/03/03 10:28:20;;;;;;;1999.90;999.90;;;;;;;5.85;53.81;163956.94;5059672;28;20052;-68
2022/03/03 10:30:48;;;;;;;1999.90;999.90;;;;;;;6.43;52.80;164110.75;5063183;28;20487;-67
2022/03/03 10:33:17;;;;;;;1999.90;999.90;;;;;;;6.09;51.64;164020.09;5061850;28;20113;-68
2022/03/03 10:36:04;;;;;;;1999.90;999.90;;;;;;;5.57;53.79;163882.81;5063108;28;20045;-68
2022/03/03 10:38:33;;;;;;;1999.90;999.90;;;;;;;6.06;53.52;164011.88;5058744;28;20048;-67
2022/03/03 10:41:01;;;;;;;1999.90;999.90;;;;;;;6.01;54.08;163998.16;5055937;28;20060;-68
2022/03/03 10:43:45;;;;;;;1999.90;999.90;;;;;;;6.50;52.96;164130.00;5061833;28;20047;-68
2022/03/03 10:46:12;;;;;;;1999.90;999.90;;;;;;;5.73;52.95;163923.97;5057681;28;20385;-69
2022/03/03 10:48:39;;;;;;;1999.90;999.90;;;;;;;6.19;52.59;164047.59;5066648;28;20081;-69
2022/03/03 10:51:07;;;;;;;1999.90;999.90;;;;;;;5.98;54.58;163991.28;5057701;28;20052;-68
2022/03/03 10:53:35;;;;;;;1999.90;999.90;;;;;;;5.96;52.85;163987.13;5050928;28;20052;-69
2022/03/03 10:56:12;;;;;;;1999.90;999.90;;;;;;;5.60;53.53;163891.03;5048436;28;20044;-69
2022/03/03 10:58:50;;;;;;;1999.90;999.90;;;;;;;5.28;55.29;163804.56;5048555;28;20437;-68
2022/03/03 11:01:22;;;;;;;1999.90;999.90;;;;;;;5.53;54.60;163871.81;5066436;28;20354;-67
2022/03/03 11:03:50;;;;;;;1999.90;999.90;;;;;;;4.89;55.86;163701.63;5066446;28;20296;-67
2022/03/03 11:06:18;;;;;;;1999.90;999.90;;;;;;;5.21;55.80;163786.75;5066531;28;20040;-69
2022/03/03 11:08:47;;;;;;;1999.90;999.90;;;;;;;5.39;55.48;163833.38;5066854;28;20361;-68